Time;durP1;ratioP1;P1;durP2;ratioP2;P2;SDS_P1;SDS_P2;PMS_P1;PMS_P2;Temp;Humidity;BMP_temperature;BMP_pressure;BME280_temperature;BME280_humidity;BME280_pressure;Samples;Min_cycle;Max_cycle;Signal;HPM_P1;HPM_P2
2022/01/11 00:01:43;;;;;;;25.95;5.85;;;;;;;-0.65;62.79;99783.34;4304893;33;34460;-70
2022/01/11 00:04:15;;;;;;;19.17;8.77;;;;;;;-0.73;62.50;99790.66;4293474;33;33648;-70
2022/01/11 00:06:49;;;;;;;39.50;17.77;;;;;;;-0.43;61.39;99785.94;4294936;33;33834;-70
2022/01/11 00:09:30;;;;;;;24.30;12.05;;;;;;;-0.94;63.50;99789.78;4303846;33;35954;-70
2022/01/11 00:11:58;;;;;;;27.27;13.27;;;;;;;-1.33;63.94;99796.63;4304876;33;35081;-70
2022/01/11 00:14:26;;;;;;;16.08;6.32;;;;;;;-1.29;65.49;99794.22;4307602;33;33538;-69
2022/01/11 00:16:54;;;;;;;12.77;6.12;;;;;;;-0.81;62.93;99798.03;4306280;33;33824;-70
2022/01/11 00:19:22;;;;;;;16.30;6.82;;;;;;;-0.35;60.83;99801.59;4318262;33;35204;-70
2022/01/11 00:21:50;;;;;;;14.18;6.18;;;;;;;-1.49;64.36;99799.31;4319456;33;34676;-69
2022/01/11 00:24:32;;;;;;;15.20;6.70;;;;;;;-1.53;65.51;99797.44;4317329;33;33478;-70
2022/01/11 00:27:04;;;;;;;11.68;5.85;;;;;;;-1.36;65.74;99801.63;4319352;33;33877;-69
2022/01/11 00:29:34;;;;;;;15.68;6.50;;;;;;;-0.66;62.38;99813.13;4318593;33;35827;-69
2022/01/11 00:32:09;;;;;;;10.48;5.57;;;;;;;-1.35;65.22;99815.28;4319559;33;34539;-70
2022/01/11 00:34:47;;;;;;;10.13;5.43;;;;;;;-1.16;62.99;99814.41;4318448;33;32926;-70
2022/01/11 00:37:17;;;;;;;16.25;8.20;;;;;;;-1.19;63.31;99819.38;4307421;33;33930;-70
2022/01/11 00:39:45;;;;;;;13.05;5.70;;;;;;;-1.44;64.34;99819.97;4318167;33;35068;-70
2022/01/11 00:42:13;;;;;;;21.58;12.30;;;;;;;-0.82;62.71;99828.63;4306263;33;34442;-70
2022/01/11 00:44:42;;;;;;;12.27;6.20;;;;;;;-0.70;61.09;99826.59;4304988;33;33228;-70
2022/01/11 00:47:10;;;;;;;8.85;4.78;;;;;;;-1.24;63.72;99831.94;4318771;33;34009;-70
2022/01/11 00:49:40;;;;;;;11.57;4.95;;;;;;;-1.87;66.29;99839.31;4318073;33;35518;-70
2022/01/11 00:52:09;;;;;;;9.35;5.53;;;;;;;-0.99;62.95;99840.69;4306232;33;35238;-70
2022/01/11 00:54:37;;;;;;;11.80;6.40;;;;;;;-1.67;64.94;99832.56;4318389;33;33499;-70
2022/01/11 00:57:05;;;;;;;8.73;5.18;;;;;;;-1.76;66.13;99838.12;4319106;33;33940;-70
2022/01/11 00:59:33;;;;;;;9.93;5.10;;;;;;;-1.66;66.05;99841.09;4316878;33;35158;-70
2022/01/11 01:02:01;;;;;;;8.63;4.30;;;;;;;-1.37;64.15;99840.75;4319089;33;34669;-70
2022/01/11 01:04:29;;;;;;;11.05;5.75;;;;;;;-1.30;63.85;99846.16;4317182;33;33538;-70
2022/01/11 01:06:57;;;;;;;11.05;5.07;;;;;;;-1.88;64.93;99852.88;4308232;33;34913;-70
2022/01/11 01:09:33;;;;;;;9.60;4.70;;;;;;;-1.99;65.57;99851.50;4305957;33;35666;-70
2022/01/11 01:12:01;;;;;;;13.45;5.10;;;;;;;-2.00;66.07;99859.94;4317929;33;34591;-70
2022/01/11 01:14:29;;;;;;;12.45;5.72;;;;;;;-1.26;63.21;99858.25;4302951;33;33629;-70
2022/01/11 01:16:57;;;;;;;14.87;6.50;;;;;;;-1.39;63.76;99862.78;4304347;33;33871;-69
2022/01/11 01:19:27;;;;;;;10.57;5.62;;;;;;;-1.45;64.25;99867.59;4303640;33;35936;-69
2022/01/11 01:21:55;;;;;;;12.57;5.75;;;;;;;-1.40;62.99;99871.25;4304287;33;34362;-70
2022/01/11 01:24:23;;;;;;;10.55;5.00;;;;;;;-1.67;64.30;99865.75;4304063;33;33392;-70
2022/01/11 01:26:52;;;;;;;14.75;5.97;;;;;;;-1.01;62.45;99866.16;4317607;33;34109;-70
2022/01/11 01:29:20;;;;;;;14.93;6.30;;;;;;;-1.81;65.44;99866.78;4304528;33;34990;-70
2022/01/11 01:31:48;;;;;;;13.73;6.93;;;;;;;-1.70;65.64;99875.81;4293618;33;33834;-69
2022/01/11 01:34:16;;;;;;;14.15;6.30;;;;;;;-1.44;65.50;99871.94;4304857;33;33371;-70
2022/01/11 01:36:44;;;;;;;11.65;4.53;;;;;;;-0.91;63.79;99876.81;4317551;33;33861;-70
2022/01/11 01:39:12;;;;;;;12.13;6.35;;;;;;;-0.74;63.99;99883.53;4317853;33;34920;-69
2022/01/11 01:41:44;;;;;;;25.00;10.10;;;;;;;-1.13;65.07;99877.53;4305118;33;32798;-70
2022/01/11 01:44:13;;;;;;;16.65;6.05;;;;;;;-0.96;65.40;99882.59;4317050;33;34305;-70
2022/01/11 01:46:41;;;;;;;16.50;8.20;;;;;;;-0.93;65.59;99886.13;4303558;33;33856;-70
2022/01/11 01:49:15;;;;;;;10.43;4.72;;;;;;;-0.83;65.82;99872.91;4303871;33;35118;-69
2022/01/11 01:51:45;;;;;;;22.17;7.90;;;;;;;-0.69;64.52;99884.63;4304114;33;34570;-70
2022/01/11 01:54:14;;;;;;;13.50;6.12;;;;;;;-0.95;64.73;99880.94;4304124;33;33324;-70
2022/01/11 01:56:43;;;;;;;15.15;7.35;;;;;;;-0.82;64.85;99880.63;4305249;33;32326;-70
2022/01/11 01:59:12;;;;;;;19.02;8.32;;;;;;;-0.70;65.16;99885.41;4318288;33;34891;-70
2022/01/11 02:01:46;;;;;;;11.77;6.03;;;;;;;-0.64;65.32;99878.00;4301294;33;32047;-69
2022/01/11 02:04:17;;;;;;;11.88;6.07;;;;;;;0.01;63.29;99875.56;4304126;33;34233;-70
2022/01/11 02:06:46;;;;;;;13.93;7.28;;;;;;;-0.65;65.42;99876.25;4303631;33;33893;-70
2022/01/11 02:09:15;;;;;;;17.25;7.70;;;;;;;-0.29;64.07;99885.41;4290753;33;35021;-70
2022/01/11 02:11:46;;;;;;;12.63;6.20;;;;;;;0.07;62.47;99875.81;4303701;33;33823;-69
2022/01/11 02:14:14;;;;;;;11.95;6.47;;;;;;;-1.05;65.85;99884.75;4304055;33;32782;-70
2022/01/11 02:16:42;;;;;;;15.82;7.32;;;;;;;-0.69;64.28;99887.19;4317534;33;32646;-70
2022/01/11 02:19:11;;;;;;;17.98;7.00;;;;;;;-0.63;64.43;99889.13;4317178;33;36012;-70
2022/01/11 02:21:39;;;;;;;15.65;6.80;;;;;;;-0.50;64.51;99885.38;4317177;33;34436;-68
2022/01/11 02:24:07;;;;;;;16.73;7.53;;;;;;;-0.25;63.58;99885.63;4318368;33;33604;-70
2022/01/11 02:26:35;;;;;;;12.02;6.93;;;;;;;-1.10;65.75;99895.56;4304272;33;34618;-70
2022/01/11 02:29:03;;;;;;;14.82;6.18;;;;;;;-0.77;64.63;99889.38;4303761;33;34986;-70
2022/01/11 02:31:36;;;;;;;15.23;6.35;;;;;;;-0.47;64.20;99885.53;4315573;33;34041;-70
2022/01/11 02:34:05;;;;;;;20.83;6.97;;;;;;;-0.53;63.77;99885.25;4317136;33;33288;-70
2022/01/11 02:36:35;;;;;;;19.67;7.50;;;;;;;-0.72;63.85;99892.16;4317888;33;33970;-70
2022/01/11 02:39:05;;;;;;;15.63;7.03;;;;;;;-0.94;64.96;99886.91;4319243;33;35805;-69
2022/01/11 02:41:33;;;;;;;15.35;6.43;;;;;;;-0.75;64.35;99888.59;4318920;33;34342;-70
2022/01/11 02:44:02;;;;;;;12.27;6.10;;;;;;;-0.68;62.26;99894.03;4320108;33;33502;-70
2022/01/11 02:46:29;;;;;;;14.98;6.87;;;;;;;-0.75;62.97;99897.13;4302979;33;33892;-70
2022/01/11 02:48:58;;;;;;;16.02;7.12;;;;;;;-0.81;63.08;99900.28;4305644;33;35023;-69
2022/01/11 02:51:27;;;;;;;11.38;5.12;;;;;;;-0.93;63.78;99893.78;4316405;33;35108;-70
2022/01/11 02:53:59;;;;;;;11.65;5.53;;;;;;;-1.22;63.97;99895.88;4316110;33;33493;-70
2022/01/11 02:56:27;;;;;;;12.70;6.57;;;;;;;-0.88;62.15;99898.28;4315775;33;34121;-70
2022/01/11 02:58:55;;;;;;;17.50;8.35;;;;;;;-0.85;61.85;99892.41;4307073;33;35649;-70
2022/01/11 03:01:23;;;;;;;13.40;5.87;;;;;;;-1.48;63.71;99903.25;4313428;33;34576;-70
2022/01/11 03:03:52;;;;;;;15.05;5.62;;;;;;;-1.65;64.62;99893.91;4318323;33;34431;-70
2022/01/11 03:06:21;;;;;;;12.32;5.10;;;;;;;-1.44;64.84;99889.81;4318738;33;34001;-70
2022/01/11 03:08:50;;;;;;;19.02;6.03;;;;;;;-1.33;65.12;99901.37;4319933;33;35075;-69
2022/01/11 03:11:19;;;;;;;12.35;7.75;;;;;;;-1.48;66.78;99905.81;4317234;33;34536;-70
2022/01/11 03:13:48;;;;;;;11.00;6.20;;;;;;;-1.21;66.77;99913.84;4306930;33;33392;-70
2022/01/11 03:16:17;;;;;;;14.32;6.50;;;;;;;-0.76;65.42;99915.81;4291252;33;32444;-70
2022/01/11 03:18:47;;;;;;;11.18;6.62;;;;;;;-1.79;69.20;99923.91;4292531;33;35063;-69
2022/01/11 03:21:15;;;;;;;13.88;7.45;;;;;;;-1.76;70.09;99917.25;4314174;33;34485;-70
2022/01/11 03:23:43;;;;;;;14.50;7.45;;;;;;;-1.74;70.22;99920.75;4320028;33;33420;-70
2022/01/11 03:26:12;;;;;;;13.75;6.50;;;;;;;-1.86;70.58;99925.28;4318604;33;34004;-70
2022/01/11 03:28:40;;;;;;;14.38;6.85;;;;;;;-1.41;69.21;99915.50;4306829;33;35869;-69
2022/01/11 03:31:08;;;;;;;11.25;6.35;;;;;;;-1.34;68.38;99919.22;4318675;33;34322;-69
2022/01/11 03:33:37;;;;;;;18.05;7.37;;;;;;;-0.99;67.44;99935.25;4319784;33;33460;-70
2022/01/11 03:36:05;;;;;;;16.60;7.05;;;;;;;-1.33;68.55;99920.94;4315021;33;33604;-70
2022/01/11 03:38:34;;;;;;;14.25;7.15;;;;;;;-0.89;66.45;99927.19;4318669;33;34938;-70
2022/01/11 03:41:03;;;;;;;15.68;6.75;;;;;;;-1.11;66.86;99930.47;4318717;33;34579;-69
2022/01/11 03:43:31;;;;;;;13.80;7.28;;;;;;;-1.39;67.81;99929.22;4305427;33;33467;-70
2022/01/11 03:45:59;;;;;;;12.55;7.55;;;;;;;-1.24;67.24;99923.06;4286389;33;33224;-69
2022/01/11 03:48:28;;;;;;;13.45;7.15;;;;;;;-1.35;67.32;99936.19;4318791;33;35914;-69
2022/01/11 03:50:56;;;;;;;11.25;6.80;;;;;;;-1.02;66.47;99935.13;4318648;33;34468;-70
2022/01/11 03:53:32;;;;;;;13.45;6.22;;;;;;;-0.90;65.68;99937.34;4319764;33;32733;-70
2022/01/11 03:56:21;;;;;;;13.10;6.50;;;;;;;-0.81;65.46;99940.34;4319169;33;33964;-69
2022/01/11 03:58:50;;;;;;;13.02;6.68;;;;;;;-0.74;65.06;99941.47;4318910;33;34932;-69
2022/01/11 04:01:19;;;;;;;13.00;6.93;;;;;;;-0.11;62.81;99952.72;4310026;33;33798;-70
2022/01/11 04:03:48;;;;;;;17.33;6.20;;;;;;;-1.00;65.68;99948.84;4305086;33;33537;-70
2022/01/11 04:06:16;;;;;;;20.83;7.80;;;;;;;-0.84;65.16;99963.22;4312636;33;33951;-70
2022/01/11 04:08:45;;;;;;;15.73;6.93;;;;;;;-0.60;64.01;99956.63;4319568;33;35039;-73
2022/01/11 04:11:13;;;;;;;12.45;6.03;;;;;;;-0.44;63.33;99962.37;4303192;33;34462;-70
2022/01/11 04:13:42;;;;;;;15.48;7.22;;;;;;;-1.07;64.46;99960.47;4308579;33;33500;-69
2022/01/11 04:16:11;;;;;;;14.20;6.78;;;;;;;-0.48;62.68;99955.41;4315594;33;34814;-69
2022/01/11 04:18:39;;;;;;;7.93;4.62;;;;;;;-1.29;65.01;99960.28;4319150;33;35030;-70
2022/01/11 04:21:08;;;;;;;10.88;5.00;;;;;;;-0.75;63.27;99955.06;4318356;33;34895;-70
2022/01/11 04:23:36;;;;;;;15.23;6.57;;;;;;;-1.06;64.03;99959.69;4306456;33;33733;-69
2022/01/11 04:26:05;;;;;;;15.93;6.35;;;;;;;-1.16;64.21;99967.72;4311631;33;33901;-69
2022/01/11 04:28:34;;;;;;;15.60;6.43;;;;;;;-0.94;62.72;99964.47;4296923;33;35057;-68
2022/01/11 04:31:02;;;;;;;11.45;5.47;;;;;;;-1.21;63.54;99959.84;4312276;33;35326;-69
2022/01/11 04:33:32;;;;;;;12.98;5.70;;;;;;;-0.99;62.74;99971.03;4308449;33;33500;-70
2022/01/11 04:36:01;;;;;;;11.82;6.10;;;;;;;-0.62;62.49;99975.25;4307373;33;166968;-69
2022/01/11 04:38:30;;;;;;;10.30;6.12;;;;;;;-1.15;63.80;99975.47;4308829;33;35204;-69
2022/01/11 04:40:59;;;;;;;13.65;6.25;;;;;;;-0.72;63.08;99978.19;4318343;33;33691;-69
2022/01/11 04:43:27;;;;;;;14.18;5.95;;;;;;;-0.76;62.81;99984.84;4318930;33;34214;-67
2022/01/11 04:45:55;;;;;;;15.85;6.82;;;;;;;-0.54;62.49;99990.97;4302140;33;34745;-68
2022/01/11 04:48:25;;;;;;;11.02;6.62;;;;;;;-0.48;61.91;99998.88;4307885;33;35089;-69
2022/01/11 04:50:53;;;;;;;18.05;6.72;;;;;;;-0.42;61.44;99999.16;4318055;33;35218;-69
2022/01/11 04:53:21;;;;;;;15.20;6.05;;;;;;;-0.44;61.11;100004.22;4318969;33;33749;-69
2022/01/11 04:55:50;;;;;;;11.95;5.87;;;;;;;-1.34;64.19;100008.62;4302139;33;33444;-69
2022/01/11 04:58:18;;;;;;;15.45;6.97;;;;;;;-1.21;64.29;100015.19;4306934;33;35912;-69
2022/01/11 05:00:46;;;;;;;9.27;5.18;;;;;;;-1.58;65.28;100004.06;4316662;33;33985;-70
2022/01/11 05:03:14;;;;;;;11.35;5.93;;;;;;;-1.37;64.62;100019.56;4308540;33;33283;-69
2022/01/11 05:05:42;;;;;;;9.82;5.50;;;;;;;-1.00;63.73;100005.97;4318046;33;33914;-69
2022/01/11 05:08:10;;;;;;;16.27;7.05;;;;;;;-1.22;64.81;100019.44;4316720;33;35690;-69
2022/01/11 05:10:42;;;;;;;11.88;5.18;;;;;;;-1.32;65.36;100017.22;4303959;33;34489;-69
2022/01/11 05:13:12;;;;;;;12.50;5.22;;;;;;;-1.10;64.38;100021.66;4305595;33;33446;-68
2022/01/11 05:15:41;;;;;;;16.58;6.40;;;;;;;-1.04;64.19;100031.28;4317970;33;33924;-69
2022/01/11 05:18:10;;;;;;;10.30;6.40;;;;;;;-1.09;63.61;100041.31;4318548;33;35039;-69
2022/01/11 05:20:39;;;;;;;10.60;5.55;;;;;;;-1.47;64.79;100040.34;4315164;33;35299;-68
2022/01/11 05:23:09;;;;;;;13.40;6.68;;;;;;;-0.94;63.21;100035.16;4291721;33;33002;-69
2022/01/11 05:25:37;;;;;;;9.48;4.80;;;;;;;-0.70;61.47;100041.41;4316577;33;34842;-68
2022/01/11 05:28:05;;;;;;;14.20;5.97;;;;;;;-0.72;61.12;100045.59;4318506;33;35964;-69
2022/01/11 05:30:33;;;;;;;17.58;6.10;;;;;;;-1.29;62.15;100053.13;4291967;33;32975;-70
2022/01/11 05:33:02;;;;;;;13.05;7.32;;;;;;;-2.21;65.62;100051.97;4318468;33;33497;-69
2022/01/11 05:35:30;;;;;;;16.90;8.63;;;;;;;-1.46;61.81;100060.00;4317627;33;34060;-69
2022/01/11 05:37:59;;;;;;;11.88;6.97;;;;;;;-2.08;63.75;100060.25;4317425;33;36041;-69
2022/01/11 05:40:27;;;;;;;10.82;6.03;;;;;;;-2.04;62.90;100062.19;4316652;33;35352;-70
2022/01/11 05:42:56;;;;;;;12.52;5.37;;;;;;;-2.26;64.15;100071.25;4311535;33;33565;-69
2022/01/11 05:45:24;;;;;;;10.43;4.45;;;;;;;-1.20;60.60;100060.34;4317291;33;33914;-69
2022/01/11 05:47:52;;;;;;;8.23;4.62;;;;;;;-1.47;61.23;100065.88;4317981;33;35857;-69
2022/01/11 05:50:23;;;;;;;9.20;5.18;;;;;;;-1.41;60.91;100081.53;4317422;33;34544;-69
2022/01/11 05:52:53;;;;;;;9.27;4.18;;;;;;;-1.54;61.10;100081.72;4304053;33;33562;-67
2022/01/11 05:55:21;;;;;;;15.05;6.03;;;;;;;-1.47;60.14;100086.31;4315210;33;34596;-70
2022/01/11 05:57:50;;;;;;;6.50;4.78;;;;;;;-1.50;59.99;100088.75;4306140;33;34942;-68
2022/01/11 06:00:20;;;;;;;14.68;7.60;;;;;;;-1.69;60.97;100080.94;4318248;33;34446;-69
2022/01/11 06:02:54;;;;;;;11.90;5.95;;;;;;;-2.54;63.87;100090.22;4308869;33;31966;-68
2022/01/11 06:05:24;;;;;;;10.13;4.55;;;;;;;-1.63;61.14;100086.38;4315491;33;33957;-69
2022/01/11 06:07:53;;;;;;;8.20;5.07;;;;;;;-2.08;62.73;100085.78;4303519;33;35185;-68
2022/01/11 06:10:22;;;;;;;9.07;4.43;;;;;;;-2.43;63.84;100095.91;4315431;33;34323;-69
2022/01/11 06:12:50;;;;;;;11.68;4.57;;;;;;;-2.61;64.46;100098.34;4319526;33;33523;-68
2022/01/11 06:15:18;;;;;;;13.30;5.43;;;;;;;-2.23;63.13;100102.03;4318919;33;34924;-68
2022/01/11 06:17:46;;;;;;;8.73;4.55;;;;;;;-1.84;62.01;100106.59;4303303;33;35192;-70
2022/01/11 06:20:14;;;;;;;7.93;4.28;;;;;;;-2.01;62.16;100108.25;4316527;33;34372;-69
2022/01/11 06:22:43;;;;;;;12.32;5.25;;;;;;;-2.12;63.02;100111.16;4306001;33;33552;-68
2022/01/11 06:25:11;;;;;;;8.10;4.07;;;;;;;-1.37;59.91;100125.97;4315719;33;33519;-70
2022/01/11 06:27:40;;;;;;;10.38;4.85;;;;;;;-1.55;60.50;100124.25;4318900;33;35754;-70
2022/01/11 06:30:15;;;;;;;17.75;10.00;;;;;;;-1.55;59.80;100131.06;4320111;33;34476;-69
2022/01/11 06:32:45;;;;;;;15.00;7.95;;;;;;;-1.74;60.99;100134.34;4305995;33;33609;-68
2022/01/11 06:35:16;;;;;;;14.40;5.85;;;;;;;-1.44;59.93;100149.47;4302719;33;33872;-68
2022/01/11 06:37:45;;;;;;;8.32;4.22;;;;;;;-1.49;58.94;100156.88;4319204;33;34909;-68
2022/01/11 06:40:16;;;;;;;9.10;5.00;;;;;;;-2.50;61.91;100160.97;4319379;33;35268;-70
2022/01/11 06:42:46;;;;;;;18.40;5.30;;;;;;;-1.92;60.58;100162.34;4318954;33;34209;-69
2022/01/11 06:45:14;;;;;;;10.82;6.20;;;;;;;-1.17;58.01;100161.03;4306826;33;33882;-69
2022/01/11 06:47:42;;;;;;;12.23;4.47;;;;;;;-1.62;59.20;100169.84;4318791;33;35910;-70
2022/01/11 06:50:11;;;;;;;10.23;5.45;;;;;;;-1.76;60.17;100182.78;4319176;33;34599;-69
2022/01/11 06:52:39;;;;;;;11.45;5.37;;;;;;;-1.47;59.56;100172.28;4307144;33;34280;-69
2022/01/11 06:55:08;;;;;;;11.05;5.57;;;;;;;-1.39;59.44;100174.44;4305721;33;33906;-69
2022/01/11 06:57:37;;;;;;;11.20;5.10;;;;;;;-1.45;58.44;100180.91;4316553;33;35121;-69
2022/01/11 07:00:07;;;;;;;8.15;4.12;;;;;;;-1.82;59.63;100184.97;4306830;33;33701;-70
2022/01/11 07:02:36;;;;;;;8.75;4.72;;;;;;;-0.96;57.57;100185.91;4312896;33;33358;-70
2022/01/11 07:05:10;;;;;;;9.38;4.47;;;;;;;-1.64;59.12;100200.41;4312974;33;33925;-69
2022/01/11 07:07:38;;;;;;;9.07;5.35;;;;;;;-1.21;58.02;100194.06;4307188;33;34968;-69
2022/01/11 07:10:06;;;;;;;12.18;4.97;;;;;;;-1.44;59.32;100201.44;4305539;33;35132;-69
2022/01/11 07:12:35;;;;;;;11.55;5.35;;;;;;;-0.67;57.49;100210.34;4315748;33;34311;-68
2022/01/11 07:15:03;;;;;;;23.40;6.70;;;;;;;0.25;55.70;100203.50;4318780;33;33961;-70
2022/01/11 07:17:32;;;;;;;16.40;4.90;;;;;;;0.62;54.72;100202.56;4305803;33;35094;-70
2022/01/11 07:20:01;;;;;;;11.93;4.65;;;;;;;0.81;53.77;100217.00;4319874;33;35249;-69
2022/01/11 07:22:29;;;;;;;10.60;4.55;;;;;;;1.51;51.84;100207.91;4317537;33;33418;-70
2022/01/11 07:24:58;;;;;;;24.90;6.55;;;;;;;0.62;54.62;100224.72;4319877;33;34916;-70
2022/01/11 07:27:26;;;;;;;16.55;6.47;;;;;;;0.71;53.72;100220.88;4318564;33;34981;-70
2022/01/11 07:29:54;;;;;;;6.57;4.68;;;;;;;0.90;53.55;100227.69;4319680;33;34451;-70
2022/01/11 07:32:22;;;;;;;12.95;5.85;;;;;;;0.85;53.72;100221.47;4318784;33;33506;-69
2022/01/11 07:34:50;;;;;;;11.20;6.37;;;;;;;1.89;50.76;100227.37;4319821;33;34083;-70
2022/01/11 07:37:18;;;;;;;8.40;4.30;;;;;;;1.38;51.40;100232.22;4314756;33;35133;-74
2022/01/11 07:39:46;;;;;;;11.32;4.70;;;;;;;1.23;52.13;100232.44;4318898;33;34388;-75
2022/01/11 07:42:14;;;;;;;8.93;4.35;;;;;;;1.55;51.89;100232.88;4318771;33;34277;-72
2022/01/11 07:44:50;;;;;;;11.15;5.10;;;;;;;0.99;51.55;100233.97;4319990;33;34773;-71
2022/01/11 07:47:19;;;;;;;8.05;4.55;;;;;;;2.61;47.65;100231.75;4310348;33;35770;-72
2022/01/11 07:49:48;;;;;;;10.85;5.28;;;;;;;1.78;49.66;100233.75;4304723;33;34372;-69
2022/01/11 07:52:16;;;;;;;12.20;5.05;;;;;;;2.76;48.44;100218.53;4312503;33;34381;-81
2022/01/11 07:54:44;;;;;;;11.77;5.62;;;;;;;1.92;49.66;100226.59;4319667;33;34381;-74
2022/01/11 07:57:13;;;;;;;11.38;5.10;;;;;;;3.21;47.07;100223.50;4310813;33;35972;-68
2022/01/11 07:59:41;;;;;;;11.55;4.95;;;;;;;3.26;47.18;100238.22;4305086;33;35404;-69
2022/01/11 08:02:23;;;;;;;11.00;6.30;;;;;;;2.90;47.04;100233.59;4303409;33;33487;-74
2022/01/11 08:04:53;;;;;;;16.80;5.45;;;;;;;2.69;49.77;100234.56;4318661;33;34425;-73
2022/01/11 08:07:22;;;;;;;8.52;5.00;;;;;;;3.39;48.20;100235.22;4310219;33;34951;-69
2022/01/11 08:09:50;;;;;;;13.10;6.25;;;;;;;3.09;48.56;100241.09;4319575;33;34433;-69
2022/01/11 08:12:19;;;;;;;9.90;4.82;;;;;;;2.88;49.75;100240.34;4318659;33;33576;-75
2022/01/11 08:14:48;;;;;;;13.57;6.15;;;;;;;4.56;46.00;100249.06;4319413;33;34029;-70
2022/01/11 08:17:17;;;;;;;10.98;4.57;;;;;;;5.28;44.30;100244.97;4318371;33;35141;-75
2022/01/11 08:19:46;;;;;;;11.57;5.10;;;;;;;5.24;44.27;100251.75;4319554;33;34571;-73
2022/01/11 08:22:14;;;;;;;11.93;5.28;;;;;;;4.48;45.99;100251.44;4304813;33;34171;-73
2022/01/11 08:24:44;;;;;;;13.68;5.93;;;;;;;4.17;47.04;100254.81;4319550;33;34175;-73
2022/01/11 08:27:13;;;;;;;15.45;5.07;;;;;;;3.80;47.43;100248.53;4318317;33;36557;-72
2022/01/11 08:29:42;;;;;;;15.45;5.62;;;;;;;4.10;47.28;100247.72;4319529;33;34451;-73
2022/01/11 08:32:10;;;;;;;10.60;5.57;;;;;;;4.09;46.30;100252.00;4313585;33;33500;-70
2022/01/11 08:34:39;;;;;;;13.85;5.12;;;;;;;4.89;43.93;100262.03;4318475;33;34734;-71
2022/01/11 08:37:08;;;;;;;11.18;5.15;;;;;;;4.73;44.30;100255.56;4317748;33;33828;-70
2022/01/11 08:39:36;;;;;;;9.68;4.55;;;;;;;5.77;41.16;100264.25;4319257;33;34500;-72
2022/01/11 08:42:05;;;;;;;11.88;5.28;;;;;;;5.11;43.91;100268.63;4318013;33;33551;-70
2022/01/11 08:44:34;;;;;;;11.20;4.43;;;;;;;5.13;42.49;100266.97;4319158;33;34933;-69
2022/01/11 08:47:02;;;;;;;8.13;4.32;;;;;;;5.43;40.51;100268.56;4312233;33;35139;-73
2022/01/11 08:49:32;;;;;;;11.15;5.62;;;;;;;4.84;43.44;100267.91;4304537;33;34105;-70
2022/01/11 08:52:00;;;;;;;10.20;5.12;;;;;;;3.86;44.12;100264.19;4304450;33;33567;-73
2022/01/11 08:54:29;;;;;;;10.48;4.50;;;;;;;5.30;41.56;100276.84;4290344;33;34258;-70
2022/01/11 08:56:58;;;;;;;10.30;4.03;;;;;;;6.61;38.17;100275.56;4294507;33;35029;-74
2022/01/11 08:59:26;;;;;;;8.30;4.18;;;;;;;7.79;36.34;100263.84;4304516;33;34550;-70
2022/01/11 09:02:02;;;;;;;11.35;5.18;;;;;;;8.22;34.59;100265.34;4305508;33;33629;-70
2022/01/11 09:04:31;;;;;;;8.52;4.90;;;;;;;8.50;34.25;100269.19;4304511;33;34106;-75
2022/01/11 09:07:00;;;;;;;17.23;4.93;;;;;;;8.35;34.00;100269.84;4309126;33;35041;-71
2022/01/11 09:09:31;;;;;;;10.70;4.00;;;;;;;8.23;34.13;100272.28;4305619;33;35093;-70
2022/01/11 09:12:03;;;;;;;10.48;4.72;;;;;;;8.77;33.17;100279.06;4296904;33;33527;-78
2022/01/11 09:14:33;;;;;;;11.55;4.43;;;;;;;9.59;33.08;100267.72;4306055;33;33099;-77
2022/01/11 09:17:02;;;;;;;13.55;4.85;;;;;;;9.34;31.90;100273.59;4304808;33;35935;-75
2022/01/11 09:19:31;;;;;;;9.68;4.72;;;;;;;5.82;38.77;100275.56;4305924;33;35169;-75
2022/01/11 09:22:00;;;;;;;11.10;4.95;;;;;;;7.22;36.55;100273.28;4314159;33;33459;-75
2022/01/11 09:24:36;;;;;;;10.35;4.57;;;;;;;8.08;34.51;100268.63;4295997;33;33967;-75
2022/01/11 09:27:05;;;;;;;12.80;4.07;;;;;;;7.01;36.20;100268.59;4294869;33;35108;-77
2022/01/11 09:29:36;;;;;;;8.00;4.32;;;;;;;6.25;37.85;100268.78;4305683;33;35239;-74
2022/01/11 09:32:07;;;;;;;7.53;3.83;;;;;;;6.32;37.39;100271.50;4305184;33;33550;-71
2022/01/11 09:34:37;;;;;;;7.45;4.28;;;;;;;6.73;36.92;100272.38;4318877;33;33238;-75
2022/01/11 09:37:07;;;;;;;9.35;4.62;;;;;;;6.35;37.31;100272.44;4317917;33;35065;-73
2022/01/11 09:39:36;;;;;;;8.98;3.12;;;;;;;4.32;41.70;100280.16;4318058;33;34409;-73
2022/01/11 09:42:06;;;;;;;8.82;4.18;;;;;;;4.97;41.14;100276.84;4310517;33;33424;-70
2022/01/11 09:44:38;;;;;;;10.65;4.85;;;;;;;5.07;39.15;100276.25;4317879;33;34697;-72
2022/01/11 09:47:14;;;;;;;13.00;4.55;;;;;;;5.42;41.04;100274.59;4317013;33;35037;-70
2022/01/11 09:49:43;;;;;;;8.73;3.90;;;;;;;5.41;39.69;100278.00;4307481;33;34096;-73
2022/01/11 09:52:13;;;;;;;9.73;4.93;;;;;;;5.53;39.46;100273.97;4319582;33;33584;-70
2022/01/11 09:54:43;;;;;;;6.70;3.40;;;;;;;4.58;41.05;100273.19;4320578;33;34688;-73
2022/01/11 09:57:12;;;;;;;7.37;3.87;;;;;;;4.81;40.80;100265.22;4304115;33;35904;-74
2022/01/11 09:59:40;;;;;;;6.28;3.72;;;;;;;4.90;40.54;100270.63;4304274;33;34151;-74
2022/01/11 10:02:23;;;;;;;9.45;3.53;;;;;;;5.21;39.41;100276.62;4319418;33;34396;-75
2022/01/11 10:05:01;;;;;;;11.10;3.78;;;;;;;5.45;39.74;100272.09;4307473;33;34822;-72
2022/01/11 10:07:32;;;;;;;11.60;3.35;;;;;;;7.47;37.11;100270.25;4318410;33;35035;-70
2022/01/11 10:10:01;;;;;;;10.05;4.03;;;;;;;8.16;34.30;100264.41;4305860;33;34437;-74
2022/01/11 10:12:43;;;;;;;6.93;4.07;;;;;;;8.35;34.59;100260.34;4310736;33;33452;-74
2022/01/11 10:15:12;;;;;;;7.72;3.78;;;;;;;9.00;32.36;100255.03;4306335;33;34565;-77
2022/01/11 10:17:43;;;;;;;8.73;3.95;;;;;;;9.16;32.11;100256.97;4303875;33;35788;-71
2022/01/11 10:20:17;;;;;;;7.25;3.65;;;;;;;9.93;30.81;100262.78;4293084;33;34052;-73
2022/01/11 10:22:59;;;;;;;7.72;3.97;;;;;;;9.63;31.24;100259.09;4312079;33;33429;-75
2022/01/11 10:25:30;;;;;;;7.47;3.55;;;;;;;9.76;30.44;100269.59;4320412;33;33966;-75
2022/01/11 10:28:04;;;;;;;13.20;4.93;;;;;;;10.88;29.91;100254.56;4306274;33;34879;-71
2022/01/11 10:30:34;;;;;;;8.25;4.45;;;;;;;10.32;30.73;100253.47;4306259;33;35273;-74
2022/01/11 10:33:07;;;;;;;5.45;3.12;;;;;;;10.26;30.60;100261.25;4319099;33;33414;-70
2022/01/11 10:35:44;;;;;;;7.90;3.72;;;;;;;10.53;29.64;100263.13;4319345;33;33986;-70
2022/01/11 10:38:24;;;;;;;7.53;3.37;;;;;;;10.81;28.62;100256.28;4309787;33;35110;-72
2022/01/11 10:40:53;;;;;;;6.97;3.87;;;;;;;10.36;28.90;100254.37;4304698;33;34453;-74
2022/01/11 10:43:22;;;;;;;6.47;3.12;;;;;;;9.65;30.71;100256.50;4314752;33;33419;-74
2022/01/11 10:45:52;;;;;;;8.02;3.03;;;;;;;9.50;31.24;100265.06;4320098;33;34173;-76
2022/01/11 10:48:23;;;;;;;9.60;4.43;;;;;;;9.79;30.82;100261.81;4309240;33;35565;-78
2022/01/11 10:50:59;;;;;;;6.93;3.22;;;;;;;9.55;30.39;100263.38;4305594;33;33656;-73
2022/01/11 10:53:32;;;;;;;;;;;;;;;9.52;31.14;100255.53;4303263;33;34240;-74
2022/01/11 10:56:02;;;;;;;8.93;3.15;;;;;;;9.81;31.37;100262.69;4320336;33;34076;-75
2022/01/11 10:59:10;;;;;;;9.00;3.55;;;;;;;9.30;31.31;100257.97;4303523;33;34941;-75
2022/01/11 11:01:42;;;;;;;7.72;3.60;;;;;;;9.70;31.57;100260.00;4311599;33;34343;-74
2022/01/11 11:04:31;;;;;;;11.23;3.95;;;;;;;9.20;31.50;100261.31;4297395;33;33282;-75
2022/01/11 11:07:13;;;;;;;10.80;3.65;;;;;;;9.51;31.64;100256.38;4305979;33;33781;-74
2022/01/11 11:09:47;;;;;;;7.65;3.10;;;;;;;7.16;35.22;100261.94;4320029;33;35936;-76
2022/01/11 11:12:23;;;;;;;7.78;3.15;;;;;;;8.80;33.01;100268.69;4303714;33;34310;-71
2022/01/11 11:14:57;;;;;;;6.32;3.12;;;;;;;8.85;32.16;100263.56;4292324;33;33532;-73
2022/01/11 11:17:27;;;;;;;6.87;3.72;;;;;;;8.77;32.89;100267.78;4293189;33;34034;-71
2022/01/11 11:20:08;;;;;;;4.57;2.35;;;;;;;9.45;31.13;100267.59;4298567;33;35124;-71
2022/01/11 11:22:36;;;;;;;8.00;2.78;;;;;;;10.40;30.09;100251.81;4300897;33;34482;-75
2022/01/11 11:25:07;;;;;;;10.98;4.22;;;;;;;9.85;31.07;100262.72;4304335;33;34149;-72
2022/01/11 11:27:35;;;;;;;8.43;3.80;;;;;;;9.00;33.13;100268.94;4308849;33;34161;-70
2022/01/11 11:30:03;;;;;;;7.53;3.55;;;;;;;9.08;32.26;100264.66;4319526;33;35170;-73
2022/01/11 11:32:33;;;;;;;6.90;3.70;;;;;;;9.18;31.41;100259.56;4318917;33;34450;-75
2022/01/11 11:35:01;;;;;;;6.20;3.42;;;;;;;8.51;33.61;100260.56;4306696;33;34261;-74
2022/01/11 11:37:31;;;;;;;4.50;2.90;;;;;;;8.90;32.37;100260.16;4298637;33;33560;-75
2022/01/11 11:40:22;;;;;;;9.20;4.03;;;;;;;9.72;32.32;100260.03;4317600;33;35117;-74